createdAt,value
2023-04-06T00:01:32.183Z,49.98
2023-04-06T00:03:59.363Z,50.04
2023-04-06T00:06:27.818Z,49.77
2023-04-06T00:08:55.122Z,49.20
2023-04-06T00:11:22.564Z,48.76
2023-04-06T00:13:50.308Z,48.78
2023-04-06T00:16:17.567Z,48.96
2023-04-06T00:18:44.900Z,48.95
2023-04-06T00:21:16.114Z,48.71
2023-04-06T00:23:43.395Z,48.78
2023-04-06T00:26:11.694Z,48.62
2023-04-06T00:28:41.444Z,48.78
2023-04-06T00:31:08.635Z,48.77
2023-04-06T00:33:35.921Z,49.25
2023-04-06T00:36:03.273Z,49.45
2023-04-06T00:38:30.612Z,49.54
2023-04-06T00:40:58.015Z,49.79
2023-04-06T00:43:25.556Z,50.41
2023-04-06T00:45:53.076Z,50.31
2023-04-06T00:48:20.257Z,50.21
2023-04-06T00:50:47.411Z,50.36
2023-04-06T00:53:14.615Z,50.51
2023-04-06T00:55:42.289Z,50.19
2023-04-06T00:58:10.027Z,50.19
2023-04-06T01:00:46.678Z,50.39
2023-04-06T01:03:18.267Z,49.99
2023-04-06T01:05:45.757Z,50.01
2023-04-06T01:08:20.300Z,49.85
2023-04-06T01:10:47.760Z,50.28
2023-04-06T01:13:35.275Z,50.12
2023-04-06T01:16:06.732Z,50.03
2023-04-06T01:18:51.182Z,50.01
2023-04-06T01:21:23.437Z,49.79
2023-04-06T01:24:13.545Z,49.79
2023-04-06T01:26:55.518Z,49.93
2023-04-06T01:29:23.010Z,50.07
2023-04-06T01:31:50.569Z,50.46
2023-04-06T01:34:17.960Z,50.27
2023-04-06T01:36:46.074Z,50.25
2023-04-06T01:39:27.382Z,50.48
2023-04-06T01:41:54.577Z,50.65
2023-04-06T01:44:22.764Z,50.68
2023-04-06T01:46:58.204Z,50.64
2023-04-06T01:49:25.701Z,50.94
2023-04-06T01:51:56.135Z,50.85
2023-04-06T01:54:23.589Z,51.37
2023-04-06T01:56:57.606Z,51.61
2023-04-06T01:59:32.640Z,51.74
2023-04-06T02:02:03.494Z,51.81
2023-04-06T02:04:31.833Z,51.84
2023-04-06T02:07:08.782Z,51.80
2023-04-06T02:09:36.868Z,51.60
2023-04-06T02:12:06.718Z,51.65
2023-04-06T02:14:35.013Z,51.84
2023-04-06T02:17:02.290Z,51.72
2023-04-06T02:19:29.451Z,51.86
2023-04-06T02:21:56.704Z,52.18
2023-04-06T02:24:23.892Z,52.16
2023-04-06T02:26:51.240Z,52.42
2023-04-06T02:29:18.463Z,52.54
2023-04-06T02:31:45.908Z,52.40
2023-04-06T02:34:18.626Z,52.42
2023-04-06T02:36:49.732Z,52.56
2023-04-06T02:39:17.181Z,52.19
2023-04-06T02:41:44.512Z,52.11
2023-04-06T02:44:14.254Z,52.40
2023-04-06T02:46:44.021Z,52.28
2023-04-06T02:49:11.414Z,52.37
2023-04-06T02:51:38.845Z,52.27
2023-04-06T02:54:31.258Z,52.39
2023-04-06T02:56:59.085Z,52.27
2023-04-06T02:59:35.650Z,52.23
2023-04-06T03:02:10.040Z,52.56
2023-04-06T03:04:37.797Z,52.66
2023-04-06T03:07:09.552Z,52.62
2023-04-06T03:09:39.879Z,52.70
2023-04-06T03:12:09.713Z,52.94
2023-04-06T03:14:53.331Z,52.64
2023-04-06T03:17:21.376Z,52.94
2023-04-06T03:19:49.297Z,53.39
2023-04-06T03:22:16.675Z,53.42
2023-04-06T03:24:44.230Z,54.03
2023-04-06T03:27:11.540Z,53.91
2023-04-06T03:29:39.085Z,54.24
2023-04-06T03:32:10.948Z,54.22
2023-04-06T03:34:41.928Z,54.19
2023-04-06T03:37:10.644Z,54.19
2023-04-06T03:39:44.985Z,54.06
2023-04-06T03:42:17.803Z,53.54
2023-04-06T03:44:54.456Z,53.64
2023-04-06T03:47:22.322Z,53.68
2023-04-06T03:49:52.298Z,53.52
2023-04-06T03:52:19.611Z,53.75
2023-04-06T03:54:46.900Z,53.65
2023-04-06T03:57:14.226Z,53.50
2023-04-06T03:59:41.545Z,53.58
2023-04-06T04:02:08.771Z,53.52
2023-04-06T04:04:36.112Z,53.27
2023-04-06T04:07:03.379Z,53.34
2023-04-06T04:09:30.714Z,53.47
2023-04-06T04:11:57.988Z,53.51
2023-04-06T04:14:25.294Z,53.58
2023-04-06T04:16:52.635Z,53.84
2023-04-06T04:19:19.923Z,53.76
2023-04-06T04:21:48.114Z,53.90
2023-04-06T04:24:19.833Z,53.97
2023-04-06T04:26:47.127Z,54.17
2023-04-06T04:29:16.365Z,54.47
2023-04-06T04:31:44.176Z,54.17
2023-04-06T04:34:17.252Z,53.82
2023-04-06T04:36:44.659Z,54.14
2023-04-06T04:39:16.923Z,53.87
2023-04-06T04:41:49.673Z,54.03
2023-04-06T04:44:17.721Z,53.81
2023-04-06T04:46:44.994Z,53.87
2023-04-06T04:49:14.983Z,53.55
2023-04-06T04:51:42.819Z,53.41
2023-04-06T04:54:18.121Z,52.97
2023-04-06T04:56:46.197Z,52.80
2023-04-06T04:59:25.386Z,52.74
2023-04-06T05:02:05.878Z,52.98
2023-04-06T05:04:42.784Z,52.51
2023-04-06T05:07:14.234Z,52.09
2023-04-06T05:09:42.739Z,52.09
2023-04-06T05:12:10.963Z,52.09
2023-04-06T05:14:48.349Z,51.98
2023-04-06T05:17:18.398Z,51.69
2023-04-06T05:19:46.653Z,51.59
2023-04-06T05:22:18.750Z,51.76
2023-04-06T05:24:52.548Z,51.73
2023-04-06T05:27:20.309Z,50.86
2023-04-06T05:29:48.733Z,50.42
2023-04-06T05:32:17.058Z,50.06
2023-04-06T05:34:46.031Z,50.30
2023-04-06T05:37:13.353Z,50.08
2023-04-06T05:39:40.759Z,49.69
2023-04-06T05:42:08.209Z,49.62
2023-04-06T05:44:51.170Z,49.57
2023-04-06T05:47:19.147Z,49.06
2023-04-06T05:49:50.770Z,48.59
2023-04-06T05:52:26.374Z,48.22
2023-04-06T05:54:55.089Z,48.10
2023-04-06T05:57:22.527Z,47.51
2023-04-06T05:59:50.722Z,47.53
2023-04-06T06:02:18.228Z,47.05
2023-04-06T06:04:49.110Z,46.70
2023-04-06T06:07:18.333Z,46.50
2023-04-06T06:09:59.455Z,46.46
2023-04-06T06:12:32.458Z,46.28
2023-04-06T06:15:01.556Z,45.83
2023-04-06T06:17:30.247Z,45.54
2023-04-06T06:19:57.986Z,45.48
2023-04-06T06:24:55.273Z,44.32
2023-04-06T06:27:24.405Z,44.28
2023-04-06T06:29:51.834Z,43.90
2023-04-06T06:32:19.654Z,43.73
2023-04-06T06:34:50.471Z,43.41
2023-04-06T06:37:19.021Z,42.95
2023-04-06T06:39:46.484Z,42.46
2023-04-06T06:42:14.840Z,42.18
2023-04-06T06:45:10.416Z,41.45
2023-04-06T06:47:37.809Z,41.09
2023-04-06T06:50:05.913Z,40.84
2023-04-06T06:52:33.252Z,40.59
2023-04-06T06:55:01.288Z,40.50
2023-04-06T06:57:29.291Z,40.59
2023-04-06T06:59:56.651Z,40.34
2023-04-06T07:02:24.548Z,39.72
2023-04-06T07:04:52.107Z,39.57
2023-04-06T07:07:19.754Z,39.18
2023-04-06T07:09:46.955Z,39.14
2023-04-06T07:12:14.142Z,38.76
2023-04-06T07:14:41.754Z,38.29
2023-04-06T07:17:09.209Z,38.20
2023-04-06T07:19:36.856Z,37.96
2023-04-06T07:22:04.892Z,37.57
2023-04-06T07:24:32.094Z,37.55
2023-04-06T07:27:01.623Z,37.55
2023-04-06T07:29:29.417Z,37.32
2023-04-06T07:31:57.488Z,37.24
2023-04-06T07:34:25.074Z,37.17
2023-04-06T07:36:57.737Z,36.77
2023-04-06T07:39:27.848Z,36.54
2023-04-06T07:41:56.646Z,36.82
2023-04-06T07:44:24.314Z,36.39
2023-04-06T07:46:51.693Z,36.30
2023-04-06T07:49:22.027Z,35.96
2023-04-06T07:51:49.846Z,35.99
2023-04-06T07:54:17.758Z,35.83
2023-04-06T07:56:45.451Z,35.43
2023-04-06T07:59:12.891Z,35.24
2023-04-06T08:01:40.372Z,34.94
2023-04-06T08:04:07.971Z,34.75
2023-04-06T08:06:36.047Z,34.47
2023-04-06T08:09:04.204Z,33.86
2023-04-06T08:11:31.412Z,33.88
2023-04-06T08:13:58.828Z,34.01
2023-04-06T08:16:26.475Z,33.26
2023-04-06T08:18:53.855Z,33.01
2023-04-06T08:21:21.218Z,32.80
2023-04-06T08:23:48.555Z,32.88
2023-04-06T08:26:15.945Z,32.45
2023-04-06T08:28:45.672Z,32.19
2023-04-06T08:31:14.287Z,32.07
2023-04-06T08:33:41.669Z,31.20
2023-04-06T08:36:11.614Z,31.29
2023-04-06T08:38:39.274Z,31.09
2023-04-06T08:41:14.824Z,30.99
2023-04-06T08:43:52.283Z,30.18
2023-04-06T08:46:19.929Z,30.53
2023-04-06T08:48:50.903Z,30.35
2023-04-06T08:51:20.013Z,30.93
2023-04-06T08:53:47.650Z,30.49
2023-04-06T08:56:15.044Z,30.16
2023-04-06T08:58:42.963Z,30.00
2023-04-06T09:01:13.852Z,29.36
2023-04-06T09:03:43.031Z,28.79
2023-04-06T09:06:11.359Z,28.46
2023-04-06T09:08:41.428Z,28.39
2023-04-06T09:11:09.649Z,28.37
2023-04-06T09:13:51.912Z,28.45
2023-04-06T09:16:20.771Z,28.23
2023-04-06T09:18:49.071Z,27.89
2023-04-06T09:21:20.605Z,27.33
2023-04-06T09:23:59.775Z,27.11
2023-04-06T09:26:27.974Z,26.93
2023-04-06T09:29:00.670Z,27.29
2023-04-06T09:31:36.812Z,26.36
2023-04-06T09:34:04.164Z,25.43
2023-04-06T09:36:39.473Z,25.70
2023-04-06T09:39:07.355Z,26.45
2023-04-06T09:41:36.558Z,26.18
2023-04-06T09:44:08.572Z,25.38
2023-04-06T09:46:54.928Z,25.75
2023-04-06T09:49:26.114Z,26.40
2023-04-06T09:52:13.751Z,25.86
2023-04-06T09:54:42.615Z,25.76
2023-04-06T09:57:19.001Z,25.35
2023-04-06T10:00:03.609Z,25.39
2023-04-06T10:02:51.132Z,25.17
2023-04-06T10:05:34.673Z,25.07
2023-04-06T10:08:08.422Z,25.06
2023-04-06T10:10:36.498Z,24.95
2023-04-06T10:13:05.076Z,24.94
2023-04-06T10:15:33.042Z,24.64
2023-04-06T10:18:01.609Z,24.27
2023-04-06T10:20:40.678Z,24.54
2023-04-06T10:23:22.004Z,24.47
2023-04-06T10:26:01.597Z,24.36
2023-04-06T10:28:37.385Z,24.32
2023-04-06T10:31:08.098Z,23.82
2023-04-06T10:33:38.781Z,23.51
2023-04-06T10:36:23.629Z,23.89
2023-04-06T10:38:59.077Z,23.24
2023-04-06T10:41:49.389Z,23.79
2023-04-06T10:44:25.205Z,23.66
2023-04-06T10:47:03.882Z,23.75
2023-04-06T10:49:31.530Z,24.08
2023-04-06T10:51:59.133Z,23.45
2023-04-06T10:54:28.441Z,23.52
2023-04-06T10:56:57.809Z,23.21
2023-04-06T10:59:26.468Z,22.78
2023-04-06T11:01:56.169Z,22.97
2023-04-06T11:04:24.732Z,23.71
2023-04-06T11:06:52.409Z,22.96
2023-04-06T11:09:34.341Z,23.11
2023-04-06T11:12:01.986Z,22.56
2023-04-06T11:14:29.616Z,22.82
2023-04-06T11:16:57.280Z,22.99
2023-04-06T11:19:25.031Z,21.96
2023-04-06T11:21:52.764Z,21.82
2023-04-06T11:24:25.473Z,21.73
2023-04-06T11:26:59.556Z,22.77
2023-04-06T11:29:31.309Z,21.55
2023-04-06T11:32:04.621Z,21.79
2023-04-06T11:34:40.648Z,22.15
2023-04-06T11:37:13.421Z,21.74
2023-04-06T11:39:51.866Z,21.98
2023-04-06T11:42:27.894Z,21.52
2023-04-06T11:44:59.524Z,21.85
2023-04-06T11:47:37.355Z,21.33
2023-04-06T11:50:14.009Z,20.94
2023-04-06T11:52:43.108Z,20.95
2023-04-06T11:55:18.090Z,19.26
2023-04-06T11:57:46.326Z,18.31
2023-04-06T12:00:14.555Z,18.21
2023-04-06T12:02:48.506Z,17.41
2023-04-06T12:05:16.054Z,16.79
2023-04-06T12:07:43.686Z,16.58
2023-04-06T12:10:11.252Z,15.94
2023-04-06T12:12:38.449Z,16.06
2023-04-06T12:15:06.558Z,15.73
2023-04-06T12:17:33.714Z,15.82
2023-04-06T12:20:09.496Z,15.64
2023-04-06T12:22:46.528Z,15.66
2023-04-06T12:25:13.785Z,16.13
2023-04-06T12:27:41.385Z,15.57
2023-04-06T12:30:09.514Z,15.39
2023-04-06T12:32:36.720Z,15.84
2023-04-06T12:35:04.146Z,15.97
2023-04-06T12:37:31.343Z,15.92
2023-04-06T12:39:58.701Z,16.04
2023-04-06T12:42:26.009Z,15.67
2023-04-06T12:44:53.430Z,15.19
2023-04-06T12:47:20.745Z,15.66
2023-04-06T12:49:47.993Z,15.61
2023-04-06T12:52:15.336Z,15.59
2023-04-06T12:54:43.393Z,15.65
2023-04-06T12:57:10.561Z,15.41
2023-04-06T12:59:38.319Z,16.42
2023-04-06T13:02:06.462Z,17.34
2023-04-06T13:04:34.165Z,18.31
2023-04-06T13:07:01.275Z,18.22
2023-04-06T13:09:28.481Z,17.16
2023-04-06T13:11:55.705Z,16.59
2023-04-06T13:14:22.887Z,16.27
2023-04-06T13:16:50.257Z,15.98
2023-04-06T13:19:17.601Z,15.75
2023-04-06T13:21:44.836Z,15.24
2023-04-06T13:24:11.998Z,15.04
2023-04-06T13:26:39.285Z,15.15
2023-04-06T13:29:06.487Z,15.75
2023-04-06T13:31:33.892Z,15.19
2023-04-06T13:34:01.224Z,15.09
2023-04-06T13:36:28.508Z,14.84
2023-04-06T13:38:56.633Z,15.33
2023-04-06T13:41:27.437Z,15.41
2023-04-06T13:43:54.652Z,14.87
2023-04-06T13:46:22.069Z,15.09
2023-04-06T13:48:49.449Z,14.63
2023-04-06T13:51:16.769Z,14.77
2023-04-06T13:53:44.000Z,15.10
2023-04-06T13:56:13.560Z,16.29
2023-04-06T13:58:40.851Z,15.61
2023-04-06T14:01:11.291Z,15.32
2023-04-06T14:03:43.220Z,15.26
2023-04-06T14:08:44.741Z,14.62
2023-04-06T14:11:15.726Z,14.91
2023-04-06T14:13:43.217Z,14.99
2023-04-06T14:16:10.686Z,14.79
2023-04-06T14:18:38.407Z,14.86
2023-04-06T14:21:05.667Z,14.81
2023-04-06T14:23:33.932Z,14.80
2023-04-06T14:26:06.816Z,14.63
2023-04-06T14:28:35.661Z,14.47
2023-04-06T14:31:11.011Z,14.45
2023-04-06T14:33:38.191Z,14.26
2023-04-06T14:36:07.055Z,14.44
2023-04-06T14:38:34.272Z,14.67
2023-04-06T14:41:07.593Z,14.82
2023-04-06T14:43:34.910Z,15.30
2023-04-06T14:46:03.152Z,15.38
2023-04-06T14:48:30.602Z,15.61
2023-04-06T14:50:58.490Z,15.47
2023-04-06T14:53:27.294Z,15.18
2023-04-06T14:55:57.394Z,14.92
2023-04-06T14:58:28.562Z,14.67
2023-04-06T15:01:01.115Z,14.86
2023-04-06T15:03:30.125Z,14.76
2023-04-06T15:05:58.418Z,14.97
2023-04-06T15:08:26.177Z,15.17
2023-04-06T15:10:57.407Z,15.44
2023-04-06T15:13:24.556Z,15.17
2023-04-06T15:15:55.413Z,15.34
2023-04-06T15:18:22.659Z,15.45
2023-04-06T15:20:49.868Z,15.76
2023-04-06T15:23:34.107Z,16.27
2023-04-06T15:26:02.240Z,16.62
2023-04-06T15:28:29.873Z,16.26
2023-04-06T15:30:58.587Z,15.98
2023-04-06T15:33:26.248Z,16.18
2023-04-06T15:35:53.449Z,15.64
2023-04-06T15:38:21.957Z,15.91
2023-04-06T15:40:50.110Z,15.46
2023-04-06T15:43:17.722Z,15.54
2023-04-06T15:45:44.812Z,15.64
2023-04-06T15:48:11.986Z,15.90
2023-04-06T15:50:39.092Z,16.03
2023-04-06T15:53:06.263Z,16.07
2023-04-06T15:55:33.347Z,15.80
2023-04-06T15:58:00.636Z,16.38
2023-04-06T16:00:28.950Z,15.68
2023-04-06T16:02:57.299Z,16.08
2023-04-06T16:05:25.486Z,16.26
2023-04-06T16:07:54.114Z,16.22
2023-04-06T16:10:21.115Z,16.20
2023-04-06T16:12:48.246Z,16.04
2023-04-06T16:15:15.486Z,16.06
2023-04-06T16:17:43.975Z,16.52
2023-04-06T16:20:12.197Z,16.49
2023-04-06T16:22:39.307Z,16.69
2023-04-06T16:25:06.944Z,16.84
2023-04-06T16:27:34.029Z,16.59
2023-04-06T16:32:33.175Z,18.21
2023-04-06T16:35:00.566Z,19.24
2023-04-06T16:37:29.758Z,19.64
2023-04-06T16:39:57.267Z,20.16
2023-04-06T16:42:24.393Z,20.85
2023-04-06T16:44:51.591Z,21.40
2023-04-06T16:47:18.950Z,21.66
2023-04-06T16:49:46.534Z,22.27
2023-04-06T16:52:13.740Z,22.81
2023-04-06T16:54:41.243Z,22.85
2023-04-06T16:57:08.353Z,23.30
2023-04-06T16:59:35.717Z,23.35
2023-04-06T17:02:03.371Z,23.46
2023-04-06T17:04:30.716Z,23.48
2023-04-06T17:06:57.956Z,24.31
2023-04-06T17:09:25.465Z,24.18
2023-04-06T17:11:53.837Z,24.47
2023-04-06T17:14:20.966Z,24.67
2023-04-06T17:16:48.216Z,24.70
2023-04-06T17:19:15.795Z,24.85
2023-04-06T17:21:43.359Z,25.19
2023-04-06T17:24:10.669Z,25.36
2023-04-06T17:26:37.866Z,25.48
2023-04-06T17:29:05.083Z,25.97
2023-04-06T17:31:32.245Z,25.85
2023-04-06T17:34:00.007Z,26.29
2023-04-06T17:36:30.309Z,26.78
2023-04-06T17:38:57.519Z,26.87
2023-04-06T17:41:24.629Z,26.80
2023-04-06T17:43:51.851Z,27.07
2023-04-06T17:46:20.652Z,27.09
2023-04-06T17:48:47.849Z,27.27
2023-04-06T17:51:18.964Z,27.49
2023-04-06T17:53:47.012Z,27.56
2023-04-06T17:56:14.514Z,27.45
2023-04-06T17:58:41.677Z,27.48
2023-04-06T18:01:11.483Z,27.78
2023-04-06T18:03:38.976Z,28.22
2023-04-06T18:06:14.597Z,28.32
2023-04-06T18:08:42.856Z,28.69
2023-04-06T18:11:21.659Z,28.70
2023-04-06T18:13:49.595Z,28.52
2023-04-06T18:16:17.848Z,28.68
2023-04-06T18:18:45.128Z,28.52
2023-04-06T18:21:12.266Z,28.99
2023-04-06T18:23:39.506Z,29.04
2023-04-06T18:26:11.561Z,29.33
2023-04-06T18:28:38.719Z,29.62
2023-04-06T18:31:05.913Z,29.67
2023-04-06T18:33:33.835Z,29.86
2023-04-06T18:36:01.211Z,29.81
2023-04-06T18:38:28.477Z,29.98
2023-04-06T18:40:55.849Z,30.15
2023-04-06T18:43:23.059Z,30.24
2023-04-06T18:45:50.300Z,30.52
2023-04-06T18:48:17.560Z,30.57
2023-04-06T18:51:03.972Z,30.61
2023-04-06T18:53:31.406Z,30.78
2023-04-06T18:55:59.382Z,30.85
2023-04-06T18:58:27.401Z,31.12
2023-04-06T19:00:55.152Z,31.22
2023-04-06T19:03:22.556Z,31.54
2023-04-06T19:05:49.941Z,31.96
2023-04-06T19:08:17.153Z,32.12
2023-04-06T19:10:44.526Z,32.34
2023-04-06T19:13:12.026Z,32.77
2023-04-06T19:15:44.333Z,32.57
2023-04-06T19:18:11.821Z,33.12
2023-04-06T19:20:39.028Z,33.26
2023-04-06T19:23:06.575Z,33.37
2023-04-06T19:25:33.883Z,33.45
2023-04-06T19:28:01.655Z,33.93
2023-04-06T19:30:28.988Z,34.07
2023-04-06T19:32:56.590Z,33.93
2023-04-06T19:35:24.257Z,34.14
2023-04-06T19:37:51.502Z,34.15
2023-04-06T19:40:18.773Z,33.99
2023-04-06T19:42:46.335Z,34.18
2023-04-06T19:45:13.684Z,34.34
2023-04-06T19:47:41.299Z,34.20
2023-04-06T19:50:11.793Z,34.31
2023-04-06T19:52:39.100Z,34.47
2023-04-06T19:55:06.934Z,34.68
2023-04-06T19:57:34.013Z,35.12
2023-04-06T20:00:01.352Z,35.17
2023-04-06T20:02:36.969Z,35.27
2023-04-06T20:05:04.888Z,35.40
2023-04-06T20:07:32.308Z,35.70
2023-04-06T20:10:02.184Z,35.37
2023-04-06T20:12:29.414Z,36.18
2023-04-06T20:14:57.120Z,35.92
2023-04-06T20:17:24.795Z,36.11
2023-04-06T20:19:53.836Z,36.62
2023-04-06T20:22:21.254Z,36.43
2023-04-06T20:24:48.372Z,36.95
2023-04-06T20:27:15.696Z,37.44
2023-04-06T20:29:42.889Z,38.02
2023-04-06T20:32:14.463Z,37.93
2023-04-06T20:34:41.593Z,37.95
2023-04-06T20:37:08.910Z,38.47
2023-04-06T20:39:37.002Z,38.59
2023-04-06T20:42:04.436Z,38.43
2023-04-06T20:44:32.251Z,38.14
2023-04-06T20:46:59.813Z,38.19
2023-04-06T20:49:27.025Z,38.04
2023-04-06T20:51:54.297Z,38.07
2023-04-06T20:54:21.614Z,38.04
2023-04-06T20:56:48.775Z,38.25
2023-04-06T20:59:16.110Z,38.47
2023-04-06T21:01:44.489Z,38.41
2023-04-06T21:04:11.790Z,38.73
2023-04-06T21:06:38.985Z,39.58
2023-04-06T21:09:06.143Z,39.89
2023-04-06T21:11:33.355Z,39.81
2023-04-06T21:14:00.735Z,39.83
2023-04-06T21:16:28.060Z,40.24
2023-04-06T21:18:55.286Z,40.52
2023-04-06T21:21:22.404Z,40.76
2023-04-06T21:23:53.042Z,40.59
2023-04-06T21:26:20.677Z,40.68
2023-04-06T21:28:47.907Z,41.35
2023-04-06T21:31:16.673Z,41.71
2023-04-06T21:33:43.823Z,41.48
2023-04-06T21:36:11.060Z,41.58
2023-04-06T21:38:38.975Z,41.77
2023-04-06T21:41:07.160Z,42.21
2023-04-06T21:43:34.652Z,41.95
2023-04-06T21:46:01.910Z,42.48
2023-04-06T21:48:29.238Z,42.99
2023-04-06T21:50:56.412Z,43.05
2023-04-06T21:53:23.746Z,42.93
2023-04-06T21:55:51.608Z,43.01
2023-04-06T21:58:18.813Z,42.98
2023-04-06T22:00:46.374Z,43.30
2023-04-06T22:03:13.621Z,43.76
2023-04-06T22:05:40.991Z,43.95
2023-04-06T22:08:09.640Z,43.58
2023-04-06T22:10:40.309Z,43.23
2023-04-06T22:13:07.370Z,43.39
2023-04-06T22:15:34.854Z,43.27
2023-04-06T22:18:02.022Z,43.31
2023-04-06T22:20:29.357Z,43.33
2023-04-06T22:22:56.626Z,43.34
2023-04-06T22:25:23.866Z,43.99
2023-04-06T22:27:50.957Z,43.68
2023-04-06T22:30:18.165Z,43.93
2023-04-06T22:32:45.352Z,43.86
2023-04-06T22:35:12.485Z,43.68
2023-04-06T22:37:43.390Z,44.05
2023-04-06T22:40:14.516Z,43.79
2023-04-06T22:42:41.686Z,43.91
2023-04-06T22:45:09.924Z,43.95
2023-04-06T22:47:37.300Z,44.06
2023-04-06T22:50:05.033Z,44.94
2023-04-06T22:52:32.191Z,44.69
2023-04-06T22:54:59.223Z,44.49
2023-04-06T22:57:26.755Z,44.70
2023-04-06T22:59:53.832Z,44.78
2023-04-06T23:02:21.432Z,44.41
2023-04-06T23:04:48.555Z,44.61
2023-04-06T23:07:15.778Z,44.66
2023-04-06T23:09:44.350Z,44.95
2023-04-06T23:12:12.336Z,44.98
2023-04-06T23:14:39.476Z,45.00
2023-04-06T23:17:06.864Z,44.38
2023-04-06T23:19:34.045Z,44.56
2023-04-06T23:22:01.980Z,44.64
2023-04-06T23:24:29.006Z,44.49
2023-04-06T23:26:56.512Z,44.63
2023-04-06T23:29:23.746Z,44.78
2023-04-06T23:31:50.943Z,44.67
2023-04-06T23:34:18.096Z,44.69
2023-04-06T23:36:45.408Z,45.02
2023-04-06T23:39:12.515Z,44.97
2023-04-06T23:41:39.637Z,44.60
2023-04-06T23:44:06.815Z,44.87
2023-04-06T23:46:33.954Z,44.70
2023-04-06T23:49:01.279Z,44.69
2023-04-06T23:51:28.331Z,44.55
2023-04-06T23:53:55.405Z,44.71
2023-04-06T23:56:22.491Z,44.71
2023-04-06T23:58:49.632Z,44.71
